Turpin, Oklahoma
Current Conditions -  °F | °C
As of 8:15 PM on Thursday 18 Dec 2014 (Local Time) from KLBL Reporting Station
Overcast Overcast  
Wind Chill: 30°   Ceiling: 1500
Heat Index: 36°   Visibility: 10mi
Dew Point: 30°   Wind: 7mph
Humidity: 81%   Direction: 160°SSE
Pressure: 30.17"   Gusts: NA
Location:  36.87°N, 100.88°W
Report Text: KLBL 190215Z AUTO 16006KT 10SM FEW007 OVC015 02/M01 A3017 RMK AO1
Loading
Personal Weather Stations






























Interactive Weather Map New forecast layout! Learn more

10-Day Weather Forecast

Advertisements
Track Severe Weather on mobile